createdAt,value
2019-03-24T00:02:13.886Z,15.00
2019-03-24T00:04:45.567Z,14.90
2019-03-24T00:07:17.490Z,14.90
2019-03-24T00:09:49.172Z,14.90
2019-03-24T00:12:20.622Z,14.90
2019-03-24T00:14:52.175Z,14.80
2019-03-24T00:17:25.895Z,14.80
2019-03-24T00:19:57.818Z,14.80
2019-03-24T00:22:29.261Z,14.80
2019-03-24T00:25:00.457Z,14.70
2019-03-24T00:27:32.261Z,14.70
2019-03-24T00:30:03.939Z,14.70
2019-03-24T00:32:35.861Z,14.70
2019-03-24T00:35:16.903Z,14.70
2019-03-24T00:37:48.586Z,14.60
2019-03-24T00:40:20.025Z,14.60
2019-03-24T00:42:51.707Z,14.60
2019-03-24T00:45:23.627Z,14.50
2019-03-24T00:47:55.189Z,14.50
2019-03-24T00:50:26.987Z,14.50
2019-03-24T00:52:59.031Z,14.50
2019-03-24T00:55:30.955Z,14.50
2019-03-24T00:58:03.235Z,14.40
2019-03-24T01:00:49.440Z,14.40
2019-03-24T01:03:20.998Z,14.40
2019-03-24T01:05:53.279Z,14.40
2019-03-24T01:08:25.322Z,14.40
2019-03-24T01:10:56.522Z,14.30
2019-03-24T01:13:28.084Z,14.30
2019-03-24T01:16:00.005Z,14.30
2019-03-24T01:18:31.588Z,14.30
2019-03-24T01:21:03.128Z,14.30
2019-03-24T01:23:34.329Z,14.20
2019-03-24T01:26:05.889Z,14.20
2019-03-24T01:28:37.813Z,14.20
2019-03-24T01:31:09.851Z,14.20
2019-03-24T01:33:42.013Z,14.20
2019-03-24T01:36:13.698Z,14.10
2019-03-24T01:38:45.386Z,14.10
2019-03-24T01:41:17.057Z,14.10
2019-03-24T01:43:48.379Z,14.10
2019-03-24T01:46:19.700Z,14.00
2019-03-24T01:48:51.382Z,14.00
2019-03-24T01:51:23.183Z,14.00
2019-03-24T01:53:54.991Z,14.00
2019-03-24T01:56:26.904Z,13.90
2019-03-24T01:58:58.348Z,13.90
2019-03-24T02:01:29.667Z,13.90
2019-03-24T02:04:01.348Z,13.90
2019-03-24T02:06:33.269Z,13.80
2019-03-24T02:09:07.349Z,13.80
2019-03-24T02:11:39.393Z,13.80
2019-03-24T02:14:11.074Z,13.80
2019-03-24T02:16:42.396Z,13.80
2019-03-24T02:19:14.195Z,13.70
2019-03-24T02:21:46.358Z,13.70
2019-03-24T02:24:18.046Z,13.70
2019-03-24T02:26:49.724Z,13.70
2019-03-24T02:29:21.760Z,13.70
2019-03-24T02:31:52.968Z,13.70
2019-03-24T02:34:26.204Z,13.60
2019-03-24T02:36:57.885Z,13.60
2019-03-24T02:39:29.328Z,13.60
2019-03-24T02:42:00.647Z,13.50
2019-03-24T02:44:32.209Z,13.50
2019-03-24T02:47:03.776Z,13.50
2019-03-24T02:49:35.570Z,13.50
2019-03-24T02:52:07.014Z,13.50
2019-03-24T02:54:39.052Z,13.40
2019-03-24T02:57:10.498Z,13.40
2019-03-24T02:59:42.187Z,13.40
2019-03-24T03:02:13.619Z,13.40
2019-03-24T03:04:45.783Z,13.40
2019-03-24T03:07:17.102Z,13.30
2019-03-24T03:09:48.902Z,13.30
2019-03-24T03:12:21.180Z,13.30
2019-03-24T03:14:52.509Z,13.30
2019-03-24T03:17:23.945Z,13.20
2019-03-24T03:19:55.388Z,13.20
2019-03-24T03:22:26.708Z,13.20
2019-03-24T03:24:58.517Z,13.10
2019-03-24T03:27:30.912Z,13.10
2019-03-24T03:30:02.953Z,13.10
2019-03-24T03:32:34.518Z,13.10
2019-03-24T03:35:07.043Z,13.00
2019-03-24T03:37:45.075Z,13.00
2019-03-24T03:40:17.009Z,13.00
2019-03-24T03:42:50.121Z,13.00
2019-03-24T03:45:28.924Z,13.00
2019-03-24T03:48:00.441Z,12.90
2019-03-24T03:50:31.763Z,12.90
2019-03-24T03:53:03.565Z,12.90
2019-03-24T03:55:35.485Z,12.90
2019-03-24T03:58:07.046Z,12.90
2019-03-24T04:00:39.326Z,12.90
2019-03-24T04:03:10.886Z,12.80
2019-03-24T04:05:42.569Z,12.80
2019-03-24T04:08:14.252Z,12.80
2019-03-24T04:10:45.937Z,12.80
2019-03-24T04:13:18.708Z,12.80
2019-03-24T04:15:50.547Z,12.80
2019-03-24T04:18:22.296Z,12.80
2019-03-24T04:20:53.742Z,12.70
2019-03-24T04:23:27.583Z,12.70
2019-03-24T04:25:59.414Z,12.70
2019-03-24T04:28:31.301Z,12.70
2019-03-24T04:31:02.983Z,12.70
2019-03-24T04:36:58.787Z,12.60
2019-03-24T04:39:30.107Z,12.40
2019-03-24T04:42:01.427Z,12.40
2019-03-24T04:44:32.988Z,12.40
2019-03-24T04:47:04.551Z,12.40
2019-03-24T04:49:37.551Z,12.40
2019-03-24T04:52:08.754Z,12.40
2019-03-24T04:54:40.197Z,12.40
2019-03-24T04:57:11.995Z,12.40
2019-03-24T04:59:43.680Z,12.40
2019-03-24T05:02:14.879Z,12.40
2019-03-24T05:04:47.038Z,12.40
2019-03-24T05:07:18.841Z,12.40
2019-03-24T05:09:51.601Z,12.30
2019-03-24T05:12:23.286Z,12.30
2019-03-24T05:14:54.723Z,12.30
2019-03-24T05:17:27.351Z,12.30
2019-03-24T05:19:59.767Z,12.20
2019-03-24T05:22:30.968Z,12.20
2019-03-24T05:25:02.531Z,12.20
2019-03-24T05:27:33.857Z,12.20
2019-03-24T05:30:05.773Z,12.10
2019-03-24T05:32:37.453Z,12.10
2019-03-24T05:37:47.535Z,12.10
2019-03-24T05:40:19.339Z,12.10
2019-03-24T05:42:50.897Z,12.10
2019-03-24T05:45:22.219Z,12.00
2019-03-24T05:47:53.903Z,12.00
2019-03-24T05:50:25.938Z,12.00
2019-03-24T05:52:57.144Z,12.00
2019-03-24T05:55:28.588Z,12.00
2019-03-24T05:57:59.905Z,12.00
2019-03-24T06:00:34.949Z,12.00
2019-03-24T06:03:06.867Z,12.00
2019-03-24T06:05:38.433Z,12.00
2019-03-24T06:08:10.473Z,12.00
2019-03-24T06:10:42.879Z,12.00
2019-03-24T06:13:14.435Z,12.00
2019-03-24T06:15:46.113Z,12.00
2019-03-24T06:18:17.801Z,12.00
2019-03-24T06:20:49.357Z,12.00
2019-03-24T06:23:20.679Z,12.00
2019-03-24T06:25:52.600Z,12.00
2019-03-24T06:28:24.401Z,12.00
2019-03-24T06:30:56.081Z,12.00
2019-03-24T06:33:28.124Z,12.10
2019-03-24T06:35:59.805Z,12.10
2019-03-24T06:38:31.728Z,12.10
2019-03-24T06:41:03.531Z,12.10
2019-03-24T06:43:34.973Z,12.10
2019-03-24T06:46:07.129Z,12.10
2019-03-24T06:48:38.929Z,12.10
2019-03-24T06:51:10.493Z,12.20
2019-03-24T06:53:42.415Z,12.20
2019-03-24T06:56:14.214Z,12.10
2019-03-24T06:58:45.655Z,12.20
2019-03-24T07:01:16.977Z,12.20
2019-03-24T07:03:49.379Z,12.30
2019-03-24T07:06:20.939Z,12.30
2019-03-24T07:08:52.384Z,12.30
2019-03-24T07:11:23.943Z,12.30
2019-03-24T07:13:55.866Z,12.40
2019-03-24T07:16:27.305Z,12.40
2019-03-24T07:18:58.987Z,12.40
2019-03-24T07:21:30.548Z,12.40
2019-03-24T07:24:02.109Z,12.40
2019-03-24T07:26:34.391Z,12.40
2019-03-24T07:29:05.710Z,12.50
2019-03-24T07:31:37.154Z,12.50
2019-03-24T07:34:08.833Z,12.50
2019-03-24T07:36:41.113Z,12.50
2019-03-24T07:39:12.675Z,12.50
2019-03-24T07:41:45.439Z,12.50
2019-03-24T07:44:17.117Z,12.50
2019-03-24T07:46:49.280Z,12.60
2019-03-24T07:49:21.562Z,12.50
2019-03-24T07:51:53.724Z,12.60
2019-03-24T07:54:25.406Z,12.60
2019-03-24T07:56:56.728Z,12.70
2019-03-24T07:59:28.407Z,12.70
2019-03-24T08:02:03.448Z,12.70
2019-03-24T08:04:34.893Z,12.80
2019-03-24T08:07:06.332Z,12.80
2019-03-24T08:09:38.855Z,12.80
2019-03-24T08:12:10.656Z,12.80
2019-03-24T08:14:44.734Z,12.90
2019-03-24T08:17:16.416Z,13.00
2019-03-24T08:19:48.576Z,13.00
2019-03-24T08:22:20.149Z,13.00
2019-03-24T08:24:51.583Z,13.00
2019-03-24T08:27:22.901Z,13.00
2019-03-24T08:29:54.345Z,13.00
2019-03-24T08:32:26.145Z,13.10
2019-03-24T08:34:57.466Z,13.20
2019-03-24T08:37:30.707Z,13.20
2019-03-24T08:40:03.107Z,13.20
2019-03-24T08:42:35.390Z,13.20
2019-03-24T08:45:08.509Z,13.20
2019-03-24T08:47:40.210Z,13.20
2019-03-24T08:50:17.031Z,13.20
2019-03-24T08:52:49.192Z,13.20
2019-03-24T08:55:20.877Z,13.20
2019-03-24T08:57:52.438Z,13.20
2019-03-24T09:00:30.595Z,13.30
2019-03-24T09:02:57.598Z,13.30
2019-03-24T09:05:28.916Z,13.30
2019-03-24T09:08:00.602Z,13.40
2019-03-24T09:10:33.248Z,13.40
2019-03-24T09:13:04.927Z,13.40
2019-03-24T09:15:36.364Z,13.50
2019-03-24T09:18:08.284Z,13.50
2019-03-24T09:20:41.833Z,13.50
2019-03-24T09:23:14.050Z,13.50
2019-03-24T09:25:46.330Z,13.60
2019-03-24T09:28:17.653Z,13.60
2019-03-24T09:30:50.293Z,13.70
2019-03-24T09:33:22.100Z,13.70
2019-03-24T09:35:54.138Z,13.70
2019-03-24T09:38:25.336Z,13.80
2019-03-24T09:40:56.777Z,13.80
2019-03-24T09:43:28.579Z,13.80
2019-03-24T09:46:00.020Z,13.90
2019-03-24T09:48:31.941Z,13.90
2019-03-24T09:51:05.421Z,13.90
2019-03-24T09:53:37.823Z,13.90
2019-03-24T09:56:09.745Z,14.00
2019-03-24T09:58:41.185Z,14.00
2019-03-24T10:01:12.390Z,14.10
2019-03-24T10:03:43.832Z,14.20
2019-03-24T10:06:15.149Z,14.20
2019-03-24T10:08:48.271Z,14.20
2019-03-24T10:15:07.597Z,14.30
2019-03-24T10:17:38.795Z,14.30
2019-03-24T10:20:20.194Z,14.30
2019-03-24T10:22:51.277Z,14.30
2019-03-24T10:25:23.205Z,14.30
2019-03-24T10:27:54.762Z,14.40
2019-03-24T10:30:27.161Z,14.40
2019-03-24T10:32:58.843Z,14.50
2019-03-24T10:35:30.766Z,14.50
2019-03-24T10:38:02.207Z,14.50
2019-03-24T10:40:33.766Z,14.60
2019-03-24T10:43:05.332Z,14.60
2019-03-24T10:45:36.652Z,14.70
2019-03-24T10:48:09.052Z,14.70
2019-03-24T10:50:40.374Z,14.80
2019-03-24T10:53:11.821Z,14.80
2019-03-24T10:55:43.426Z,14.90
2019-03-24T10:58:14.576Z,14.90
2019-03-24T11:00:46.738Z,14.90
2019-03-24T11:03:18.418Z,14.90
2019-03-24T11:05:50.342Z,15.00
2019-03-24T11:08:22.023Z,15.00
2019-03-24T11:10:54.303Z,15.00
2019-03-24T11:13:25.507Z,15.10
2019-03-24T11:15:59.527Z,15.10
2019-03-24T11:18:31.031Z,15.20
2019-03-24T11:21:02.591Z,15.10
2019-03-24T11:23:34.031Z,15.10
2019-03-24T11:26:05.593Z,15.10
2019-03-24T11:28:36.793Z,15.20
2019-03-24T11:31:08.356Z,15.20
2019-03-24T11:33:39.684Z,15.20
2019-03-24T11:36:11.001Z,15.20
2019-03-24T11:38:42.200Z,15.30
2019-03-24T11:41:13.399Z,15.30
2019-03-24T11:43:44.959Z,15.30
2019-03-24T11:46:16.159Z,15.30
2019-03-24T11:48:47.725Z,15.30
2019-03-24T11:51:18.927Z,15.30
2019-03-24T11:53:50.243Z,15.30
2019-03-24T11:56:21.685Z,15.30
2019-03-24T11:58:53.106Z,15.30
2019-03-24T12:01:24.345Z,15.30
2019-03-24T12:03:56.858Z,15.40
2019-03-24T12:06:28.059Z,15.40
2019-03-24T12:08:59.735Z,15.40
2019-03-24T12:11:30.935Z,15.40
2019-03-24T12:14:02.622Z,15.50
2019-03-24T12:16:33.937Z,15.50
2019-03-24T12:19:05.260Z,15.50
2019-03-24T12:21:36.463Z,15.50
2019-03-24T12:24:07.781Z,15.50
2019-03-24T12:26:38.984Z,15.50
2019-03-24T12:29:10.663Z,15.60
2019-03-24T12:31:42.230Z,15.60
2019-03-24T12:34:13.785Z,15.60
2019-03-24T12:36:45.585Z,15.70
2019-03-24T12:39:17.510Z,15.70
2019-03-24T12:41:48.831Z,15.70
2019-03-24T12:44:20.308Z,15.70
2019-03-24T12:46:51.471Z,15.70
2019-03-24T12:49:23.156Z,15.70
2019-03-24T12:51:54.360Z,15.70
2019-03-24T12:54:26.038Z,15.80
2019-03-24T12:56:57.599Z,15.80
2019-03-24T12:59:28.797Z,15.80
2019-03-24T13:02:00.003Z,15.80
2019-03-24T13:04:31.690Z,15.90
2019-03-24T13:07:03.122Z,15.90
2019-03-24T13:09:34.817Z,15.90
2019-03-24T13:12:06.537Z,16.00
2019-03-24T13:14:37.805Z,16.00
2019-03-24T13:17:09.133Z,16.10
2019-03-24T13:19:40.334Z,16.10
2019-03-24T13:22:12.145Z,16.10
2019-03-24T13:24:44.051Z,16.20
2019-03-24T13:27:15.494Z,16.20
2019-03-24T13:29:47.772Z,16.30
2019-03-24T13:32:19.218Z,16.30
2019-03-24T13:34:50.788Z,16.40
2019-03-24T13:37:22.103Z,16.50
2019-03-24T13:39:53.664Z,16.50
2019-03-24T13:42:24.981Z,16.60
2019-03-24T13:44:59.549Z,16.60
2019-03-24T13:47:30.864Z,16.60
2019-03-24T13:50:02.426Z,16.70
2019-03-24T13:52:34.343Z,16.70
2019-03-24T13:55:05.788Z,16.80
2019-03-24T13:57:37.231Z,16.80
2019-03-24T14:00:09.869Z,16.90
2019-03-24T14:02:41.190Z,17.00
2019-03-24T14:05:17.311Z,17.20
2019-03-24T14:07:48.875Z,17.30
2019-03-24T14:10:22.120Z,17.40
2019-03-24T14:12:53.802Z,17.50
2019-03-24T14:15:25.118Z,17.60
2019-03-24T14:17:56.559Z,17.60
2019-03-24T14:20:28.241Z,17.70
2019-03-24T14:22:59.562Z,17.70
2019-03-24T14:25:31.124Z,17.80
2019-03-24T14:28:02.449Z,17.90
2019-03-24T14:30:44.449Z,18.00
2019-03-24T14:33:16.132Z,18.10
2019-03-24T14:35:47.452Z,18.10
2019-03-24T14:38:19.129Z,18.20
2019-03-24T14:40:50.452Z,18.20
2019-03-24T14:43:22.016Z,18.30
2019-03-24T14:45:53.332Z,18.30
2019-03-24T14:48:25.495Z,18.30
2019-03-24T14:50:57.535Z,18.40
2019-03-24T14:53:28.738Z,18.40
2019-03-24T14:56:02.099Z,18.40
2019-03-24T14:58:33.661Z,18.40
2019-03-24T15:01:05.340Z,18.50
2019-03-24T15:03:37.745Z,18.50
2019-03-24T15:06:09.303Z,18.50
2019-03-24T15:08:40.984Z,18.60
2019-03-24T15:11:12.185Z,18.50
2019-03-24T15:13:43.264Z,18.60
2019-03-24T15:16:14.468Z,18.60
2019-03-24T15:18:45.912Z,18.70
2019-03-24T15:21:17.475Z,18.70
2019-03-24T15:23:48.791Z,18.80
2019-03-24T15:26:20.112Z,18.80
2019-03-24T15:28:51.318Z,18.80
2019-03-24T15:31:25.635Z,18.80
2019-03-24T15:33:57.450Z,18.90
2019-03-24T15:36:28.637Z,18.90
2019-03-24T15:38:59.839Z,18.90
2019-03-24T15:41:31.405Z,18.90
2019-03-24T15:44:02.844Z,19.00
2019-03-24T15:48:15.806Z,19.50
2019-03-24T15:50:47.368Z,19.40
2019-03-24T15:53:20.366Z,19.30
2019-03-24T15:55:52.408Z,19.20
2019-03-24T15:58:23.730Z,19.30
2019-03-24T16:00:56.733Z,19.20
2019-03-24T16:03:28.414Z,19.20
2019-03-24T16:05:59.856Z,19.20
2019-03-24T16:08:31.656Z,19.20
2019-03-24T16:11:03.821Z,19.20
2019-03-24T16:13:35.975Z,19.20
2019-03-24T16:16:07.418Z,19.20
2019-03-24T16:18:39.224Z,19.10
2019-03-24T16:21:10.780Z,19.10
2019-03-24T16:23:42.464Z,19.10
2019-03-24T16:26:14.264Z,19.00
2019-03-24T16:28:46.310Z,19.00
2019-03-24T16:31:17.992Z,19.00
2019-03-24T16:33:50.267Z,18.90
2019-03-24T16:36:21.950Z,18.90
2019-03-24T16:39:03.163Z,18.90
2019-03-24T16:41:26.680Z,18.90
2019-03-24T16:43:58.191Z,18.90
2019-03-24T16:46:29.765Z,18.80
2019-03-24T16:49:01.198Z,18.80
2019-03-24T16:51:38.431Z,18.80
2019-03-24T16:54:05.756Z,18.70
2019-03-24T16:56:37.098Z,18.70
2019-03-24T16:59:08.880Z,18.70
2019-03-24T17:01:47.522Z,18.70
2019-03-24T17:04:19.682Z,18.70
2019-03-24T17:06:51.366Z,18.60
2019-03-24T17:09:23.044Z,18.60
2019-03-24T17:11:56.970Z,18.60
2019-03-24T17:14:28.089Z,18.50
2019-03-24T17:17:01.210Z,18.50
2019-03-24T17:19:32.892Z,18.50
2019-03-24T17:22:04.332Z,18.50
2019-03-24T17:24:35.773Z,18.40
2019-03-24T17:27:07.696Z,18.40
2019-03-24T17:29:39.135Z,18.40
2019-03-24T17:32:11.592Z,18.40
2019-03-24T17:34:43.340Z,18.40
2019-03-24T17:37:14.900Z,18.30
2019-03-24T17:39:48.261Z,18.30
2019-03-24T17:42:21.144Z,18.30
2019-03-24T17:44:53.910Z,18.30
2019-03-24T17:47:25.466Z,18.30
2019-03-24T17:49:58.466Z,18.20
2019-03-24T17:52:30.029Z,18.20
2019-03-24T17:55:01.591Z,18.20
2019-03-24T17:57:33.398Z,18.20
2019-03-24T18:00:07.232Z,18.20
2019-03-24T18:02:38.912Z,18.10
2019-03-24T18:07:49.477Z,18.10
2019-03-24T18:10:21.162Z,18.10
2019-03-24T18:12:52.599Z,18.00
2019-03-24T18:15:24.159Z,18.00
2019-03-24T18:17:56.444Z,18.00
2019-03-24T18:20:32.804Z,18.00
2019-03-24T18:23:04.483Z,17.90
2019-03-24T18:25:36.887Z,17.90
2019-03-24T18:28:08.567Z,17.90
2019-03-24T18:30:40.728Z,17.90
2019-03-24T18:33:12.168Z,17.90
2019-03-24T18:35:43.615Z,17.80
2019-03-24T18:38:16.014Z,17.80
2019-03-24T18:40:47.690Z,17.80
2019-03-24T18:43:19.255Z,17.70
2019-03-24T18:45:51.418Z,17.70
2019-03-24T18:48:37.976Z,17.70
2019-03-24T18:51:09.656Z,17.70
2019-03-24T18:53:40.980Z,17.60
2019-03-24T18:56:12.679Z,17.60
2019-03-24T18:58:44.827Z,17.60
2019-03-24T19:01:16.382Z,17.60
2019-03-24T19:03:48.303Z,17.60
2019-03-24T19:06:20.945Z,17.60
2019-03-24T19:08:53.468Z,17.50
2019-03-24T19:11:25.394Z,17.50
2019-03-24T19:13:56.829Z,17.50
2019-03-24T19:16:28.871Z,17.40
2019-03-24T19:19:00.432Z,17.40
2019-03-24T19:21:31.636Z,17.40
2019-03-24T19:24:03.565Z,17.30
2019-03-24T19:26:35.475Z,17.30
2019-03-24T19:29:06.917Z,17.30
2019-03-24T19:31:38.486Z,17.20
2019-03-24T19:34:10.281Z,17.20
2019-03-24T19:36:42.683Z,17.20
2019-03-24T19:39:15.327Z,17.10
2019-03-24T19:41:47.123Z,17.10
2019-03-24T19:44:18.685Z,17.10
2019-03-24T19:46:50.485Z,17.10
2019-03-24T19:49:22.054Z,17.00
2019-03-24T19:51:53.610Z,17.00
2019-03-24T19:54:25.289Z,17.00
2019-03-24T19:56:57.813Z,17.00
2019-03-24T19:59:29.133Z,16.90
2019-03-24T20:02:00.934Z,16.80
2019-03-24T20:04:32.376Z,16.90
2019-03-24T20:07:04.058Z,16.90
2019-03-24T20:09:36.217Z,16.80
2019-03-24T20:12:08.498Z,16.80
2019-03-24T20:14:39.941Z,16.80
2019-03-24T20:17:11.503Z,16.80
2019-03-24T20:19:43.421Z,16.70
2019-03-24T20:22:14.863Z,16.70
2019-03-24T20:24:46.543Z,16.70
2019-03-24T20:27:19.787Z,16.70
2019-03-24T20:29:51.228Z,16.70
2019-03-24T20:32:24.115Z,16.70
2019-03-24T20:34:56.269Z,16.70
2019-03-24T20:37:27.951Z,16.70
2019-03-24T20:39:59.398Z,16.60
2019-03-24T20:42:31.313Z,16.70
2019-03-24T20:45:02.762Z,16.70
2019-03-24T20:47:35.761Z,16.60
2019-03-24T20:50:16.325Z,16.60
2019-03-24T20:52:48.961Z,16.60
2019-03-24T20:55:20.882Z,16.50
2019-03-24T20:57:52.802Z,16.60
2019-03-24T21:00:35.056Z,16.50
2019-03-24T21:03:07.803Z,16.50
2019-03-24T21:05:39.363Z,16.50
2019-03-24T21:08:11.046Z,16.40
2019-03-24T21:10:42.488Z,16.40
2019-03-24T21:13:14.771Z,16.40
2019-03-24T21:15:46.093Z,16.40
2019-03-24T21:18:17.531Z,16.40
2019-03-24T21:20:49.505Z,16.40
2019-03-24T21:23:29.127Z,16.40
2019-03-24T21:25:54.021Z,16.30
2019-03-24T21:28:25.458Z,16.30
2019-03-24T21:30:56.899Z,16.30
2019-03-24T21:33:28.223Z,16.30
2019-03-24T21:35:59.661Z,16.30
2019-03-24T21:38:31.343Z,16.20
2019-03-24T21:41:03.505Z,16.20
2019-03-24T21:43:34.943Z,16.20
2019-03-24T21:46:06.626Z,16.10
2019-03-24T21:48:38.189Z,16.10
2019-03-24T21:51:09.991Z,16.10
2019-03-24T21:53:41.549Z,16.10
2019-03-24T21:56:14.296Z,16.00
2019-03-24T21:58:45.993Z,16.00
2019-03-24T22:01:17.437Z,16.00
2019-03-24T22:03:48.753Z,16.00
2019-03-24T22:06:20.315Z,15.90
2019-03-24T22:08:51.755Z,16.00
2019-03-24T22:11:23.557Z,15.90
2019-03-24T22:13:55.537Z,15.90
2019-03-24T22:16:27.046Z,15.90
2019-03-24T22:18:58.602Z,15.90
2019-03-24T22:21:29.924Z,15.90
2019-03-24T22:24:03.168Z,15.90
2019-03-24T22:26:34.725Z,15.80
2019-03-24T22:29:06.769Z,15.80
2019-03-24T22:31:38.451Z,15.80
2019-03-24T22:34:10.253Z,15.80
2019-03-24T22:36:41.933Z,15.70
2019-03-24T22:39:13.491Z,15.70
2019-03-24T22:41:44.813Z,15.70
2019-03-24T22:44:16.614Z,15.60
2019-03-24T22:46:48.415Z,15.60
2019-03-24T22:49:20.339Z,15.60
2019-03-24T22:51:52.020Z,15.50
2019-03-24T22:54:24.061Z,15.50
2019-03-24T22:56:56.666Z,15.50
2019-03-24T22:59:28.023Z,15.50
2019-03-24T23:02:00.784Z,15.50
2019-03-24T23:04:33.425Z,15.50
2019-03-24T23:07:04.870Z,15.50
2019-03-24T23:09:36.430Z,15.50
2019-03-24T23:12:07.875Z,15.50
2019-03-24T23:14:39.915Z,15.40
2019-03-24T23:17:11.479Z,15.40
2019-03-24T23:19:43.517Z,15.40
2019-03-24T23:22:14.833Z,15.40
2019-03-24T23:24:47.597Z,15.40
2019-03-24T23:27:20.484Z,15.40
2019-03-24T23:29:52.277Z,15.40
2019-03-24T23:32:23.839Z,15.30
2019-03-24T23:34:58.045Z,15.30
2019-03-24T23:37:29.362Z,15.30
2019-03-24T23:40:01.181Z,15.30
2019-03-24T23:42:33.324Z,15.30
2019-03-24T23:45:05.006Z,15.30
2019-03-24T23:47:37.052Z,15.20
2019-03-24T23:50:15.089Z,15.20
2019-03-24T23:52:46.416Z,15.20
2019-03-24T23:55:18.331Z,15.20
2019-03-24T23:57:50.131Z,15.20
